For More Information Regarding This Station Huntingdale Station

Station Historical Data
 
Daily Summary for April 20, 2014 Units:  Metric    English   Both
« Previous Day
Next Day »
Daily Weekly Monthly Yearly Custom
  Current: High: Low: Average:
Temperature: 15.5 °C 27.3 °C 14.6 °C 19.5 °C
Dew Point: 14.2 °C 19 °C 13.7 °C 15.9 °C
Humidity: 92% 99% 59% 81%
Wind Speed: 0km/h 14.8km/h 0km/h 3.5km/h
Wind Gust: 1.1km/h 24.5km/h - -
WindCalm - - South
Pressure: 1013.1 hPa 1013.1 hPa 1009.4 hPa -
Precipitation: 0 mm      
Historical Graphs
 
 
Tabular Data for April 20, 2014
Time Temperature Dew Point Pressure Wind Wind Speed Wind Gust Humidity Rainfall Rate (Hourly) solar Conditions
00:00 14.7 °C 14.6 °C 1012.1 hPa Calm   1.1 km/h 99% 0 mm pywws W/m2
00:10 14.7 °C 14.6 °C 1012.1 hPa SW 1.1 km/h 2.6 km/h 99% 0 mm pywws W/m2
00:15 14.7 °C 14.6 °C 1012.1 hPa SE 1.1 km/h 3.5 km/h 99% 0 mm pywws W/m2
00:20 14.8 °C 14.7 °C 1011.7 hPa Calm   2.6 km/h 99% 0 mm pywws W/m2
00:25 14.7 °C 14.6 °C 1011.7 hPa Calm   1.1 km/h 99% 0 mm pywws W/m2
00:30 14.7 °C 14.6 °C 1011.7 hPa South 2.6 km/h 5 km/h 99% 0 mm pywws W/m2
00:35 14.7 °C 14.6 °C 1011.7 hPa SW 1.1 km/h 3.5 km/h 99% 0 mm pywws W/m2
00:40 14.7 °C 14.6 °C 1011.7 hPa South 2.6 km/h 6.1 km/h 99% 0 mm pywws W/m2
00:45 14.7 °C 14.6 °C 1012.1 hPa SW 3.5 km/h 6.1 km/h 99% 0 mm pywws W/m2
00:50 14.7 °C 14.6 °C 1012.1 hPa SW 3.5 km/h 6.1 km/h 99% 0 mm pywws W/m2
00:55 14.7 °C 14.6 °C 1012.1 hPa South 2.6 km/h 6.1 km/h 99% 0 mm pywws W/m2
01:00 14.7 °C 14.6 °C 1012.1 hPa South 2.6 km/h 6.1 km/h 99% 0 mm pywws W/m2
01:05 14.6 °C 14.4 °C 1012.1 hPa SW 3.5 km/h 6.1 km/h 99% 0 mm pywws W/m2
01:10 14.6 °C 14.4 °C 1012.1 hPa SW 2.6 km/h 6.1 km/h 99% 0 mm pywws W/m2
01:15 14.6 °C 14.4 °C 1012.1 hPa SW 2.6 km/h 5 km/h 99% 0 mm pywws W/m2
01:20 14.6 °C 14.4 °C 1012.1 hPa SW 3.5 km/h 6.1 km/h 99% 0 mm pywws W/m2
01:25 14.6 °C 14.4 °C 1012.1 hPa SW 1.1 km/h 3.5 km/h 99% 0 mm pywws W/m2
01:30 14.6 °C 14.4 °C 1012.1 hPa SW 2.6 km/h 3.5 km/h 99% 0 mm pywws W/m2
01:40 14.6 °C 14.4 °C 1011.7 hPa SW 1.1 km/h 3.5 km/h 99% 0 mm pywws W/m2
01:45 14.6 °C 14.4 °C 1011.7 hPa SW 1.1 km/h 5 km/h 99% 0 mm pywws W/m2
01:50 14.7 °C 14.6 °C 1011.7 hPa Calm   2.6 km/h 99% 0 mm pywws W/m2
01:55 14.8 °C 14.7 °C 1011.7 hPa Calm   2.6 km/h 99% 0 mm pywws W/m2
02:00 14.8 °C 14.7 °C 1011.7 hPa Calm   2.6 km/h 99% 0 mm pywws W/m2
02:05 14.9 °C 14.7 °C 1011.7 hPa Calm   2.6 km/h 99% 0 mm pywws W/m2
02:10 15 °C 14.8 °C 1011.7 hPa Calm   2.6 km/h 99% 0 mm pywws W/m2
02:15 15 °C 14.8 °C 1011.7 hPa Calm   2.6 km/h 99% 0 mm pywws W/m2
02:20 15.1 °C 14.8 °C 1011.7 hPa SW 2.6 km/h 5 km/h 98% 0 mm pywws W/m2
02:25 15.2 °C 14.7 °C 1011.7 hPa SW 2.6 km/h 5 km/h 97% 0 mm pywws W/m2
02:30 15.4 °C 14.8 °C 1011.7 hPa SW 3.5 km/h 7.2 km/h 96% 0 mm pywws W/m2
02:35 15.4 °C 14.6 °C 1011.7 hPa SSW 2.6 km/h 6.1 km/h 95% 0 mm pywws W/m2
02:40 15.5 °C 14.7 °C 1011.7 hPa South 2.6 km/h 7.2 km/h 95% 0 mm pywws W/m2
02:45 15.5 °C 14.6 °C 1011.7 hPa South 1.1 km/h 3.5 km/h 94% 0 mm pywws W/m2
02:50 15.5 °C 14.6 °C 1011.7 hPa South 2.6 km/h 5 km/h 94% 0 mm pywws W/m2
02:55 15.6 °C 14.6 °C 1011.7 hPa SE 2.6 km/h 5 km/h 94% 0 mm pywws W/m2
03:00 15.7 °C 14.6 °C 1011.7 hPa SE 1.1 km/h 3.5 km/h 93% 0 mm pywws W/m2
03:05 15.8 °C 14.7 °C 1011.7 hPa SE 1.1 km/h 5 km/h 93% 0 mm pywws W/m2
03:10 15.8 °C 14.5 °C 1011.7 hPa South 2.6 km/h 3.5 km/h 92% 0 mm pywws W/m2
03:15 15.9 °C 14.6 °C 1011.7 hPa South 1.1 km/h 5 km/h 92% 0 mm pywws W/m2
03:25 15.9 °C 14.4 °C 1011.7 hPa South 2.6 km/h 5 km/h 91% 0 mm pywws W/m2
03:30 15.9 °C 14.4 °C 1011.7 hPa SE 1.1 km/h 5 km/h 91% 0 mm pywws W/m2
03:40 16 °C 14.3 °C 1011.7 hPa South 1.1 km/h 5 km/h 90% 0 mm pywws W/m2
03:45 15.9 °C 14.3 °C 1011.7 hPa SE 2.6 km/h 6.1 km/h 90% 0 mm pywws W/m2
03:50 16 °C 14.3 °C 1011.7 hPa SE 3.5 km/h 6.1 km/h 90% 0 mm pywws W/m2
03:55 16 °C 14.3 °C 1011.7 hPa South 2.6 km/h 6.1 km/h 90% 0 mm pywws W/m2
04:00 15.9 °C 14.3 °C 1011.7 hPa SSW 2.6 km/h 3.5 km/h 90% 0 mm pywws W/m2
04:05 15.9 °C 14.3 °C 1011.7 hPa South 1.1 km/h 3.5 km/h 90% 0 mm pywws W/m2
04:10 15.9 °C 14.3 °C 1011.7 hPa SE 2.6 km/h 5 km/h 90% 0 mm pywws W/m2
04:15 15.9 °C 14.3 °C 1011.7 hPa Calm   2.6 km/h 90% 0 mm pywws W/m2
04:20 15.9 °C 14.3 °C 1012.1 hPa SE 2.6 km/h 5 km/h 90% 0 mm pywws W/m2
04:30 15.8 °C 14.2 °C 1012.1 hPa SE 2.6 km/h 3.5 km/h 90% 0 mm pywws W/m2
04:40 15.8 °C 14.2 °C 1012.1 hPa South 1.1 km/h 3.5 km/h 90% 0 mm pywws W/m2
04:45 15.8 °C 14.2 °C 1012.1 hPa SE 1.1 km/h 5 km/h 90% 0 mm pywws W/m2
04:50 15.8 °C 14 °C 1012.1 hPa SE 3.5 km/h 7.2 km/h 89% 0 mm pywws W/m2
04:55 15.9 °C 14.1 °C 1012.1 hPa South 1.1 km/h 2.6 km/h 89% 0 mm pywws W/m2
05:00 15.9 °C 14.1 °C 1012.1 hPa SE 2.6 km/h 8.7 km/h 89% 0 mm pywws W/m2
05:05 15.9 °C 14.1 °C 1012.4 hPa SE 5 km/h 8.7 km/h 89% 0 mm pywws W/m2
05:10 15.9 °C 14.1 °C 1012.4 hPa Calm   1.1 km/h 89% 0 mm pywws W/m2
05:15 15.9 °C 14.1 °C 1012.4 hPa South 1.1 km/h 2.6 km/h 89% 0 mm pywws W/m2
05:20 15.8 °C 14 °C 1012.4 hPa SE 1.1 km/h 5 km/h 89% 0 mm pywws W/m2
05:25 15.7 °C 13.9 °C 1012.4 hPa SE 2.6 km/h 11.1 km/h 89% 0 mm pywws W/m2
05:30 15.7 °C 13.9 °C 1012.4 hPa SE 1.1 km/h 3.5 km/h 89% 0 mm pywws W/m2
05:35 15.6 °C 13.8 °C 1012.1 hPa SE 2.6 km/h 7.2 km/h 89% 0 mm pywws W/m2
05:40 15.6 °C 13.8 °C 1012.1 hPa SE 1.1 km/h 3.5 km/h 89% 0 mm pywws W/m2
05:45 15.6 °C 13.8 °C 1012.1 hPa South 1.1 km/h 3.5 km/h 89% 0 mm pywws W/m2
05:50 15.5 °C 13.7 °C 1012.4 hPa South 1.1 km/h 3.5 km/h 89% 0 mm pywws W/m2
05:55 15.5 °C 13.9 °C 1012.4 hPa South 1.1 km/h 2.6 km/h 90% 0 mm pywws W/m2
06:00 15.5 °C 13.9 °C 1012.4 hPa South 3.5 km/h 8.7 km/h 90% 0 mm pywws W/m2
06:05 15.4 °C 13.8 °C 1012.4 hPa SE 1.1 km/h 6.1 km/h 90% 0 mm pywws W/m2
06:10 15.5 °C 13.9 °C 1012.4 hPa SE 1.1 km/h 3.5 km/h 90% 0 mm pywws W/m2
06:15 15.4 °C 13.9 °C 1012.4 hPa SE 3.5 km/h 7.2 km/h 91% 0 mm pywws W/m2
06:20 15.5 °C 14.1 °C 1012.4 hPa SE 1.1 km/h 5 km/h 91% 0 mm pywws W/m2
06:25 15.5 °C 14.1 °C 1012.4 hPa SE 1.1 km/h 5 km/h 91% 0 mm pywws W/m2
06:30 15.5 °C 14.1 °C 1012.1 hPa South 2.6 km/h 3.5 km/h 91% 0 mm pywws W/m2
06:35 15.5 °C 14.2 °C 1012.1 hPa SE 3.5 km/h 7.2 km/h 92% 0 mm pywws W/m2
06:40 15.5 °C 14.2 °C 1012.4 hPa South 1.1 km/h 3.5 km/h 92% 0 mm pywws W/m2
06:45 15.5 °C 14.2 °C 1012.1 hPa South 1.1 km/h 3.5 km/h 92% 0 mm pywws W/m2
06:50 15.5 °C 14.2 °C 1012.1 hPa Calm   2.6 km/h 92% 0 mm pywws W/m2
06:55 15.4 °C 14.1 °C 1012.4 hPa SE 1.1 km/h 3.5 km/h 92% 0 mm pywws W/m2
07:00 15.4 °C 14.1 °C 1012.4 hPa SE 2.6 km/h 5 km/h 92% 0 mm pywws W/m2
07:05 15.4 °C 14.1 °C 1012.4 hPa SE 2.6 km/h 6.1 km/h 92% 0 mm pywws W/m2
07:10 15.4 °C 14.1 °C 1012.1 hPa South 1.1 km/h 3.5 km/h 92% 0 mm pywws W/m2
07:15 15.4 °C 14.3 °C 1012.4 hPa South 1.1 km/h 6.1 km/h 93% 0 mm pywws W/m2
07:20 15.5 °C 14.4 °C 1012.4 hPa SE 1.1 km/h 3.5 km/h 93% 0 mm pywws W/m2
07:25 15.6 °C 14.4 °C 1012.4 hPa South 2.6 km/h 5 km/h 93% 0 mm pywws W/m2
07:30 15.7 °C 14.6 °C 1012.4 hPa SE 1.1 km/h 5 km/h 93% 0 mm pywws W/m2
07:35 15.8 °C 14.5 °C 1012.8 hPa SE 2.6 km/h 5 km/h 92% 0 mm pywws W/m2
07:40 16 °C 14.7 °C 1012.8 hPa South 5 km/h 7.2 km/h 92% 0 mm pywws W/m2
07:45 16.2 °C 14.7 °C 1012.8 hPa SE 2.6 km/h 7.2 km/h 91% 0 mm pywws W/m2
07:50 16.4 °C 14.9 °C 1012.8 hPa SE 2.6 km/h 6.1 km/h 91% 0 mm pywws W/m2
07:55 16.6 °C 14.9 °C 1012.8 hPa SE 2.6 km/h 6.1 km/h 90% 0 mm pywws W/m2
08:00 16.8 °C 15 °C 1012.8 hPa SE 2.6 km/h 6.1 km/h 89% 0 mm pywws W/m2
08:05 17 °C 15.2 °C 1012.8 hPa West 3.5 km/h 6.1 km/h 89% 0 mm pywws W/m2
08:10 17.1 °C 15.1 °C 1012.8 hPa SE 3.5 km/h 6.1 km/h 88% 0 mm pywws W/m2
08:15 17.2 °C 15.2 °C 1012.8 hPa SW 1.1 km/h 3.5 km/h 88% 0 mm pywws W/m2
08:20 17.5 °C 15.5 °C 1012.8 hPa SE 2.6 km/h 3.5 km/h 88% 0 mm pywws W/m2
08:25 17.7 °C 15.5 °C 1012.8 hPa South 2.6 km/h 5 km/h 87% 0 mm pywws W/m2
08:30 17.9 °C 15.5 °C 1012.8 hPa SE 1.1 km/h 5 km/h 86% 0 mm pywws W/m2
08:35 18.2 °C 15.6 °C 1012.8 hPa SE 3.5 km/h 7.2 km/h 85% 0 mm pywws W/m2
08:40 18.4 °C 15.8 °C 1013.1 hPa SE 2.6 km/h 6.1 km/h 85% 0 mm pywws W/m2
08:45 18.7 °C 15.9 °C 1013.1 hPa South 3.5 km/h 6.1 km/h 84% 0 mm pywws W/m2
08:50 19 °C 16.1 °C 1012.8 hPa South 2.6 km/h 3.5 km/h 83% 0 mm pywws W/m2
08:55 19.3 °C 16.2 °C 1012.8 hPa SE 1.1 km/h 2.6 km/h 82% 0 mm pywws W/m2
09:00 19.6 °C 16.4 °C 1012.8 hPa SE 1.1 km/h 5 km/h 82% 0 mm pywws W/m2
09:05 19.9 °C 16.6 °C 1012.8 hPa South 1.1 km/h 5 km/h 81% 0 mm pywws W/m2
09:10 20.2 °C 16.8 °C 1012.8 hPa SW 1.1 km/h 3.5 km/h 81% 0 mm pywws W/m2
09:15 20.5 °C 16.9 °C 1012.8 hPa SW 2.6 km/h 5 km/h 80% 0 mm pywws W/m2
09:20 20.5 °C 16.7 °C 1012.8 hPa SW 1.1 km/h 3.5 km/h 79% 0 mm pywws W/m2
09:25 20.8 °C 17 °C 1012.8 hPa South 1.1 km/h 3.5 km/h 79% 0 mm pywws W/m2
09:30 21.1 °C 17.3 °C 1012.8 hPa South 1.1 km/h 3.5 km/h 79% 0 mm pywws W/m2
09:35 21.4 °C 17.4 °C 1012.8 hPa SE 1.1 km/h 3.5 km/h 78% 0 mm pywws W/m2
09:40 21.8 °C 17.6 °C 1012.8 hPa East 1.1 km/h 5 km/h 77% 0 mm pywws W/m2
09:45 22.1 °C 17.4 °C 1012.4 hPa North 2.6 km/h 5 km/h 75% 0 mm pywws W/m2
09:50 22.2 °C 17.6 °C 1012.8 hPa South 2.6 km/h 5 km/h 75% 0 mm pywws W/m2
10:00 22.7 °C 17.8 °C 1012.4 hPa South 2.6 km/h 5 km/h 74% 0 mm pywws W/m2
10:05 23 °C 18.1 °C 1012.4 hPa South 1.1 km/h 3.5 km/h 74% 0 mm pywws W/m2
10:10 23.2 °C 17.9 °C 1012.4 hPa South 2.6 km/h 5 km/h 72% 0 mm pywws W/m2
10:15 23.5 °C 18.2 °C 1012.4 hPa East 1.1 km/h 3.5 km/h 72% 0 mm pywws W/m2
10:20 23.9 °C 18.3 °C 1012.4 hPa South 1.1 km/h 3.5 km/h 71% 0 mm pywws W/m2
10:25 24.2 °C 18.4 °C 1012.4 hPa North 2.6 km/h 5 km/h 70% 0 mm pywws W/m2
10:30 24.2 °C 18.2 °C 1012.4 hPa SW 3.5 km/h 6.1 km/h 69% 0 mm pywws W/m2
10:40 24 °C 17.9 °C 1012.1 hPa South 1.1 km/h 3.5 km/h 69% 0 mm pywws W/m2
10:45 24.1 °C 18.3 °C 1012.1 hPa South 1.1 km/h 3.5 km/h 70% 0 mm pywws W/m2
10:50 24.3 °C 18.2 °C 1012.1 hPa Calm   2.6 km/h 69% 0 mm pywws W/m2
10:55 24.5 °C 18.2 °C 1012.1 hPa SE 3.5 km/h 6.1 km/h 68% 0 mm pywws W/m2
11:00 24.7 °C 18.4 °C 1012.1 hPa North 2.6 km/h 8.7 km/h 68% 0 mm pywws W/m2
11:05 24.6 °C 18.3 °C 1012.1 hPa NW 3.5 km/h 8.7 km/h 68% 0 mm pywws W/m2
11:10 24.7 °C 18.4 °C 1012.1 hPa NW 2.6 km/h 5 km/h 68% 0 mm pywws W/m2
11:15 24.5 °C 18.2 °C 1011.7 hPa South 2.6 km/h 5 km/h 68% 0 mm pywws W/m2
11:20 24.4 °C 18.1 °C 1011.7 hPa SW 3.5 km/h 6.1 km/h 68% 0 mm pywws W/m2
11:25 24.3 °C 18 °C 1011.7 hPa South 2.6 km/h 7.2 km/h 68% 0 mm pywws W/m2
11:30 24.2 °C 17.9 °C 1011.7 hPa South 2.6 km/h 6.1 km/h 68% 0 mm pywws W/m2
11:35 24.7 °C 18.2 °C 1011.7 hPa NW 8.7 km/h 12.2 km/h 67% 0 mm pywws W/m2
11:40 24.8 °C 18.2 °C 1011.7 hPa North 2.6 km/h 13.4 km/h 67% 0 mm pywws W/m2
11:45 24.7 °C 18.2 °C 1011.7 hPa SW 3.5 km/h 7.2 km/h 67% 0 mm pywws W/m2
11:50 24.9 °C 18.6 °C 1011.4 hPa SW 1.1 km/h 8.7 km/h 68% 0 mm pywws W/m2
11:55 25.3 °C 18.5 °C 1011.7 hPa South 5 km/h 8.7 km/h 66% 0 mm pywws W/m2
12:00 25.4 °C 18.3 °C 1011.4 hPa SW 6.1 km/h 13.4 km/h 65% 0 mm pywws W/m2
12:05 25.3 °C 18.2 °C 1011.1 hPa South 1.1 km/h 2.6 km/h 65% 0 mm pywws W/m2
12:10 25.2 °C 18.2 °C 1011.1 hPa West 3.5 km/h 6.1 km/h 65% 0 mm pywws W/m2
12:15 25.3 °C 18.5 °C 1010.7 hPa NW 1.1 km/h 3.5 km/h 66% 0 mm pywws W/m2
12:20 25.7 °C 18.8 °C 1010.7 hPa East 2.6 km/h 5 km/h 66% 0 mm pywws W/m2
12:25 26.2 °C 18.8 °C 1010.4 hPa SW 3.5 km/h 12.2 km/h 64% 0 mm pywws W/m2
12:30 26.3 °C 18.2 °C 1010.4 hPa SW 5 km/h 8.7 km/h 61% 0 mm pywws W/m2
12:40 26.1 °C 18.5 °C 1010.4 hPa East 2.6 km/h 5 km/h 63% 0 mm pywws W/m2
12:45 26.4 °C 18.8 °C 1010.4 hPa Calm   3.5 km/h 63% 0 mm pywws W/m2
12:50 26.9 °C 19 °C 1010 hPa Calm   1.1 km/h 62% 0 mm pywws W/m2
12:55 27.1 °C 18.9 °C 1010 hPa SW 3.5 km/h 7.2 km/h 61% 0 mm pywws W/m2
13:00 27 °C 18.3 °C 1010 hPa SW 7.2 km/h 13.4 km/h 59% 0 mm pywws W/m2
13:05 26.8 °C 18.4 °C 1010 hPa SW 6.1 km/h 11.1 km/h 60% 0 mm pywws W/m2
13:10 26.8 °C 18.6 °C 1009.7 hPa WNW 2.6 km/h 5 km/h 61% 0 mm pywws W/m2
13:15 27.3 °C 18.8 °C 1009.7 hPa SW 6.1 km/h 11.1 km/h 60% 0 mm pywws W/m2
13:20 27.2 °C 18.5 °C 1009.7 hPa South 2.6 km/h 7.2 km/h 59% 0 mm pywws W/m2
13:25 27.2 °C 18.5 °C 1009.7 hPa SE 3.5 km/h 7.2 km/h 59% 0 mm pywws W/m2
13:30 27.2 °C 18.5 °C 1009.7 hPa West 5 km/h 8.7 km/h 59% 0 mm pywws W/m2
13:35 26.9 °C 18.7 °C 1009.7 hPa SW 9.7 km/h 14.8 km/h 61% 0 mm pywws W/m2
13:40 26.3 °C 18.7 °C 1009.7 hPa SW 14.8 km/h 24.5 km/h 63% 0 mm pywws W/m2
13:45 25.4 °C 18.6 °C 1009.4 hPa West 9.7 km/h 14.8 km/h 66% 0 mm pywws W/m2
13:50 25 °C 18.4 °C 1009.7 hPa West 12.2 km/h 18.3 km/h 67% 0 mm pywws W/m2
13:55 24.8 °C 18.2 °C 1009.4 hPa SW 12.2 km/h 17.2 km/h 67% 0 mm pywws W/m2
14:00 24.6 °C 18.3 °C 1009.4 hPa SW 7.2 km/h 14.8 km/h 68% 0 mm pywws W/m2
14:05 24.9 °C 18.3 °C 1009.7 hPa SW 8.7 km/h 13.4 km/h 67% 0 mm pywws W/m2
14:10 25.1 °C 18.6 °C 1009.4 hPa East 7.2 km/h 12.2 km/h 67% 0 mm pywws W/m2
14:15 25.1 °C 18.3 °C 1009.7 hPa West 7.2 km/h 12.2 km/h 66% 0 mm pywws W/m2
14:20 25.2 °C 18.2 °C 1009.7 hPa SW 8.7 km/h 19.5 km/h 65% 0 mm pywws W/m2
14:25 25.2 °C 18.2 °C 1009.7 hPa South 7.2 km/h 12.2 km/h 65% 0 mm pywws W/m2
14:30 25.4 °C 18.1 °C 1009.7 hPa NW 11.1 km/h 17.2 km/h 64% 0 mm pywws W/m2
14:35 25.4 °C 18.3 °C 1009.7 hPa NNW 9.7 km/h 17.2 km/h 65% 0 mm pywws W/m2
14:40 25.4 °C 18.3 °C 1009.7 hPa SW 9.7 km/h 17.2 km/h 65% 0 mm pywws W/m2
14:45 25.3 °C 18.2 °C 1010 hPa West 11.1 km/h 17.2 km/h 65% 0 mm pywws W/m2
14:50 25 °C 17.7 °C 1010 hPa NW 9.7 km/h 15.8 km/h 64% 0 mm pywws W/m2
14:55 24.6 °C 17.6 °C 1010 hPa SW 5 km/h 8.7 km/h 65% 0 mm pywws W/m2
15:00 24.4 °C 17.6 °C 1010 hPa South 8.7 km/h 11.1 km/h 66% 0 mm pywws W/m2
15:05 24.3 °C 17.6 °C 1010 hPa SW 7.2 km/h 12.2 km/h 66% 0 mm pywws W/m2
15:10 24 °C 17.5 °C 1009.7 hPa SW 12.2 km/h 24.5 km/h 67% 0 mm pywws W/m2
15:15 23.8 °C 17.6 °C 1010 hPa South 11.1 km/h 17.2 km/h 68% 0 mm pywws W/m2
15:20 23.7 °C 17.7 °C 1009.7 hPa SE 8.7 km/h 11.1 km/h 69% 0 mm pywws W/m2
15:25 23.7 °C 17.7 °C 1009.7 hPa NW 9.7 km/h 17.2 km/h 69% 0 mm pywws W/m2
15:30 23.8 °C 18 °C 1010 hPa WSW 11.1 km/h 19.5 km/h 70% 0 mm pywws W/m2
15:35 23.7 °C 17.9 °C 1010 hPa West 11.1 km/h 19.5 km/h 70% 0 mm pywws W/m2
15:40 23.7 °C 17.9 °C 1009.7 hPa NW 8.7 km/h 14.8 km/h 70% 0 mm pywws W/m2
15:45 23.9 °C 17.6 °C 1010 hPa NW 8.7 km/h 19.5 km/h 68% 0 mm pywws W/m2
15:50 23.8 °C 17.6 °C 1010 hPa South 7.2 km/h 13.4 km/h 68% 0 mm pywws W/m2
15:55 23.7 °C 17.4 °C 1010 hPa SSW 9.7 km/h 20.9 km/h 68% 0 mm pywws W/m2
16:00 24 °C 17.5 °C 1010 hPa SE 9.7 km/h 15.8 km/h 67% 0 mm pywws W/m2
16:05 24.2 °C 17.4 °C 1010.4 hPa SW 8.7 km/h 18.3 km/h 66% 0 mm pywws W/m2
16:10 24 °C 17.2 °C 1010 hPa South 8.7 km/h 15.8 km/h 66% 0 mm pywws W/m2
16:15 24.2 °C 17.4 °C 1010.4 hPa North 8.7 km/h 14.8 km/h 66% 0 mm pywws W/m2
16:25 23.5 °C 17 °C 1010.4 hPa South 6.1 km/h 14.8 km/h 67% 0 mm pywws W/m2
16:30 23.3 °C 17.1 °C 1010.4 hPa SW 8.7 km/h 14.8 km/h 68% 0 mm pywws W/m2
16:35 23.2 °C 16.9 °C 1010.4 hPa SW 9.7 km/h 18.3 km/h 68% 0 mm pywws W/m2
16:40 23.3 °C 17.1 °C 1010.4 hPa SE 9.7 km/h 19.5 km/h 68% 0 mm pywws W/m2
16:45 23.2 °C 16.7 °C 1010.4 hPa SW 11.1 km/h 18.3 km/h 67% 0 mm pywws W/m2
16:50 22.8 °C 16.3 °C 1010.4 hPa South 12.2 km/h 21.9 km/h 67% 0 mm pywws W/m2
17:00 22.5 °C 16.5 °C 1010.7 hPa SSW 8.7 km/h 14.8 km/h 69% 0 mm pywws W/m2
17:05 22.3 °C 16.6 °C 1010.7 hPa South 5 km/h 11.1 km/h 70% 0 mm pywws W/m2
17:10 22.2 °C 16.4 °C 1010.7 hPa SSW 9.7 km/h 15.8 km/h 70% 0 mm pywws W/m2
17:15 21.9 °C 16.4 °C 1010.7 hPa South 3.5 km/h 9.7 km/h 71% 0 mm pywws W/m2
17:20 21.6 °C 16.1 °C 1010.7 hPa South 5 km/h 9.7 km/h 71% 0 mm pywws W/m2
17:25 21.4 °C 16.1 °C 1010.7 hPa SW 7.2 km/h 12.2 km/h 72% 0 mm pywws W/m2
17:30 21.2 °C 16.2 °C 1011.1 hPa SW 5 km/h 7.2 km/h 73% 0 mm pywws W/m2
17:40 20.8 °C 15.8 °C 1010.7 hPa South 5 km/h 7.2 km/h 73% 0 mm pywws W/m2
17:45 20.7 °C 15.7 °C 1010.7 hPa South 5 km/h 7.2 km/h 73% 0 mm pywws W/m2
17:50 20.6 °C 15.8 °C 1011.1 hPa South 7.2 km/h 13.4 km/h 74% 0 mm pywws W/m2
17:55 20.4 °C 15.6 °C 1010.7 hPa SE 1.1 km/h 5 km/h 74% 0 mm pywws W/m2
18:00 20.3 °C 15.5 °C 1011.1 hPa SW 3.5 km/h 7.2 km/h 74% 0 mm pywws W/m2
18:05 20.3 °C 15.5 °C 1011.1 hPa South 5 km/h 11.1 km/h 74% 0 mm pywws W/m2
18:10 20.2 °C 15.6 °C 1011.1 hPa South 7.2 km/h 13.4 km/h 75% 0 mm pywws W/m2
18:15 20.1 °C 15.5 °C 1011.1 hPa SW 2.6 km/h 7.2 km/h 75% 0 mm pywws W/m2
18:20 20 °C 15.4 °C 1011.1 hPa SSW 5 km/h 11.1 km/h 75% 0 mm pywws W/m2
18:25 19.9 °C 15.6 °C 1011.1 hPa SW 6.1 km/h 12.2 km/h 76% 0 mm pywws W/m2
18:30 19.8 °C 15.4 °C 1011.4 hPa SW 2.6 km/h 8.7 km/h 76% 0 mm pywws W/m2
18:35 19.7 °C 15.3 °C 1011.4 hPa SW 5 km/h 8.7 km/h 76% 0 mm pywws W/m2
18:40 19.6 °C 15.4 °C 1011.4 hPa SW 2.6 km/h 8.7 km/h 77% 0 mm pywws W/m2
18:45 19.5 °C 15.3 °C 1011.4 hPa SW 5 km/h 11.1 km/h 77% 0 mm pywws W/m2
18:50 19.3 °C 15.2 °C 1011.7 hPa South 3.5 km/h 7.2 km/h 77% 0 mm pywws W/m2
18:55 19.2 °C 15.3 °C 1011.7 hPa SW 2.6 km/h 6.1 km/h 78% 0 mm pywws W/m2
19:00 19.1 °C 15.4 °C 1011.7 hPa South 5 km/h 11.1 km/h 79% 0 mm pywws W/m2
19:05 19 °C 15.3 °C 1011.7 hPa SW 2.6 km/h 5 km/h 79% 0 mm pywws W/m2
19:10 18.9 °C 15.2 °C 1011.7 hPa South 2.6 km/h 6.1 km/h 79% 0 mm pywws W/m2
19:15 18.8 °C 15.3 °C 1011.7 hPa South 3.5 km/h 7.2 km/h 80% 0 mm pywws W/m2
19:20 18.7 °C 15.4 °C 1011.7 hPa South 1.1 km/h 3.5 km/h 81% 0 mm pywws W/m2
19:25 18.5 °C 15.2 °C 1011.7 hPa SW 5 km/h 12.2 km/h 81% 0 mm pywws W/m2
19:30 18.4 °C 15.3 °C 1011.7 hPa SW 3.5 km/h 9.7 km/h 82% 0 mm pywws W/m2
19:35 18.4 °C 15.3 °C 1011.7 hPa South 2.6 km/h 6.1 km/h 82% 0 mm pywws W/m2
19:40 18.3 °C 15.2 °C 1011.7 hPa South 2.6 km/h 5 km/h 82% 0 mm pywws W/m2
19:45 18.1 °C 15 °C 1011.7 hPa SW 2.6 km/h 6.1 km/h 82% 0 mm pywws W/m2
19:50 18 °C 15.1 °C 1012.1 hPa South 2.6 km/h 6.1 km/h 83% 0 mm pywws W/m2
19:55 17.9 °C 14.9 °C 1012.1 hPa SE 1.1 km/h 2.6 km/h 83% 0 mm pywws W/m2
20:00 17.8 °C 15.1 °C 1012.1 hPa SW 1.1 km/h 2.6 km/h 84% 0 mm pywws W/m2
20:05 17.7 °C 14.9 °C 1012.1 hPa SW 1.1 km/h 5 km/h 84% 0 mm pywws W/m2
20:15 17.5 °C 14.9 °C 1012.1 hPa Calm   3.5 km/h 85% 0 mm pywws W/m2
20:20 17.3 °C 14.8 °C 1012.1 hPa SW 1.1 km/h 3.5 km/h 85% 0 mm pywws W/m2
20:25 17.2 °C 14.8 °C 1012.4 hPa Calm   2.6 km/h 86% 0 mm pywws W/m2
20:30 17.1 °C 14.7 °C 1012.4 hPa Calm     86% 0 mm pywws W/m2
20:35 17 °C 14.6 °C 1012.4 hPa South 1.1 km/h 2.6 km/h 86% 0 mm pywws W/m2
20:40 16.9 °C 14.7 °C 1012.4 hPa Calm   1.1 km/h 87% 0 mm pywws W/m2
20:45 16.8 °C 14.6 °C 1012.4 hPa Calm   1.1 km/h 87% 0 mm pywws W/m2
20:50 16.7 °C 14.5 °C 1012.4 hPa Calm   2.6 km/h 87% 0 mm pywws W/m2
20:55 16.5 °C 14.5 °C 1012.8 hPa South 1.1 km/h 2.6 km/h 88% 0 mm pywws W/m2
21:00 16.5 °C 14.5 °C 1012.8 hPa Calm   1.1 km/h 88% 0 mm pywws W/m2
21:10 16.3 °C 14.5 °C 1012.8 hPa Calm   2.6 km/h 89% 0 mm pywws W/m2
21:15 16.2 °C 14.4 °C 1012.8 hPa SW 2.6 km/h 3.5 km/h 89% 0 mm pywws W/m2
21:20 16.2 °C 14.6 °C 1012.8 hPa SW 1.1 km/h 5 km/h 90% 0 mm pywws W/m2
21:25 16.1 °C 14.6 °C 1012.8 hPa South 3.5 km/h 7.2 km/h 91% 0 mm pywws W/m2
21:30 16.1 °C 14.6 °C 1013.1 hPa Calm   2.6 km/h 91% 0 mm pywws W/m2
21:35 16 °C 14.6 °C 1013.1 hPa South 1.1 km/h 2.6 km/h 91% 0 mm pywws W/m2
21:40 16 °C 14.6 °C 1013.1 hPa SW 1.1 km/h 3.5 km/h 91% 0 mm pywws W/m2
21:45 15.8 °C 14.3 °C 1013.1 hPa SW 1.1 km/h 2.6 km/h 91% 0 mm pywws W/m2
21:50 15.7 °C 14.2 °C 1013.1 hPa South 2.6 km/h 5 km/h 91% 0 mm pywws W/m2
21:55 15.5 °C 14.1 °C 1013.1 hPa South 1.1 km/h 5 km/h 91% 0 mm pywws W/m2
22:00 15.5 °C 14.2 °C 1013.1 hPa Calm   1.1 km/h 92% 0 mm pywws W/m2
Compliments of Weather Underground